Latest Weather Observations for Moss Vale

IDN60801

Issued at 1:32 am EST Monday 25 May 2015 (issued every 30 minutes, with the page automatically refreshed every 10 minutes)

About weather observations | Map of weather stations | Latest weather observations for NSW | Other Formats
Station Details ID: 068239 Name: MOSS VALE AWS Lat: -34.53 Lon: 150.42 Height: 678.4 m
Data from the previous 72 hours. | See also: Recent months at Moss Vale
Date/Time
EST
Temp
°C
App
Temp
°C
Dew
Point
Rel
Hum
%
Delta-T
°C
Wind Press
QNH
hPa
Press
MSL
hPa
Rain
since 9 am
mm
Dir
 
Spd
km/h
Gust
km/h
Spd
kts
Gust
kts
25/01:30am 3.8 2.3 3.1 95 0.3 CALM 0 0 0 0 1031.7 1031.8 0.0
25/01:00am 4.2 2.8 3.5 95 0.3 CALM 0 0 0 0 1031.7 1031.8 0.0
25/12:30am 3.8 2.3 2.9 94 0.4 CALM 0 0 0 0 1031.8 1031.9 0.0
25/12:00am 4.0 2.6 3.4 96 0.3 CALM 0 0 0 0 1031.9 1032.0 0.0
 
Date/Time
EST
Temp
°C
App
Temp
°C
Dew
Point
Rel
Hum
%
Delta-T
°C
Wind Press
QNH
hPa
Press
MSL
hPa
Rain
since 9 am
mm
Dir
 
Spd
km/h
Gust
km/h
Spd
kts
Gust
kts
24/11:30pm 4.0 2.6 3.3 95 0.3 CALM 0 0 0 0 1032.1 1032.1 0.0
24/11:00pm 4.6 3.3 3.9 95 0.3 CALM 0 0 0 0 1032.2 1032.2 0.0
24/10:30pm 4.1 2.6 3.1 93 0.4 CALM 0 0 0 0 1032.5 1032.6 0.0
24/10:28pm 4.3 2.9 3.3 93 0.4 CALM 0 0 0 0 1032.5 1032.6 0.0
24/10:08pm 5.4 4.2 4.7 95 0.3 CALM 0 0 0 0 1032.5 1032.6 0.0
24/10:00pm 5.0 3.7 4.1 94 0.4 CALM 0 0 0 0 1032.6 1032.7 0.0
24/09:30pm 5.2 2.7 4.0 92 0.5 E 6 7 3 4 1032.2 1032.2 0.0
24/09:27pm 5.1 2.6 3.9 92 0.5 E 6 7 3 4 1032.2 1032.2 0.0
24/09:00pm 5.7 3.2 4.0 89 0.7 ENE 6 7 3 4 1032.2 1032.2 0.0
24/08:30pm 6.3 3.4 4.6 89 0.8 NNE 9 11 5 6 1032.1 1032.1 0.0
24/08:00pm 6.7 3.5 5.0 89 0.8 NNE 11 13 6 7 1032.2 1032.2 0.0
24/07:30pm 7.0 4.7 5.6 91 0.7 NNE 7 9 4 5 1031.9 1032.0 0.0
24/07:00pm 7.2 5.5 5.8 91 0.6 E 4 6 2 3 1031.8 1031.9 0.0
24/06:30pm 7.2 5.0 5.2 87 0.9 ENE 6 7 3 4 1031.8 1031.9 0.0
24/06:00pm 8.3 5.9 5.2 81 1.4 ENE 7 9 4 5 1031.6 1031.7 0.0
24/05:30pm 9.2 5.8 4.2 71 2.3 NE 11 13 6 7 1031.3 1031.4 0.0
24/05:00pm 10.6 8.7 2.7 58 3.5 WSW 2 6 1 3 1031.2 1031.3 0.0
24/04:30pm 12.5 9.5 2.1 49 4.7 WSW 7 9 4 5 1031.0 1031.0 0.0
24/04:00pm 13.4 10.6 3.2 50 4.7 WSW 7 9 4 5 1030.8 1030.8 0.0
24/03:30pm 13.8 11.0 3.3 49 4.9 WSW 7 13 4 7 1030.6 1030.6 0.0
24/03:00pm 14.6 12.2 5.1 53 4.6 WNW 7 13 4 7 1030.6 1030.6 0.0
24/02:30pm 14.3 11.0 4.6 52 4.7 WNW 11 20 6 11 1030.8 1030.8 0.0
24/02:00pm 13.8 10.3 3.3 49 4.9 WNW 11 17 6 9 1030.8 1030.8 0.0
24/01:30pm 13.7 10.7 2.3 46 5.2 WSW 7 9 4 5 1030.8 1030.8 0.0
24/01:20pm 13.3 9.1 -0.7 38 6.0 WSW 11 17 6 9 1030.7 1030.7 0.0
24/01:05pm 13.2 9.8 2.1 47 5.0 W 9 15 5 8 1030.7 1030.7 0.0
24/01:00pm 13.5 10.0 1.5 44 5.3 NW 9 15 5 8 1030.8 1030.8 0.0
24/12:30pm 13.2 10.1 5.4 59 3.8 NE 11 17 6 9 1030.9 1030.9 0.0
24/12:00pm 12.4 9.2 5.1 61 3.5 NNE 11 17 6 9 1031.3 1031.4 0.0
24/11:30am 12.1 10.0 6.8 70 2.6 N 7 11 4 6 1031.7 1031.8 0.0
24/11:00am 10.4 8.3 6.0 74 2.1 ESE 6 9 3 5 1032.2 1032.2 0.0
24/10:30am 8.8 8.2 7.4 91 0.7 CALM 0 0 0 0 1032.3 1032.3 0.0
24/10:00am 6.7 5.3 5.5 92 0.5 W 2 6 1 3 1032.4 1032.5 0.0
24/09:39am 5.8 3.9 5.1 95 0.3 N 4 7 2 4 1032.5 1032.6 0.0
24/09:30am 5.2 4.0 4.5 95 0.3 CALM 0 0 0 0 1032.5 1032.6 0.0
24/09:28am 5.6 4.5 5.0 96 0.3 CALM 0 0 0 0 1032.5 1032.6 0.0
24/09:00am 2.9 0.1 2.3 96 0.2 WSW 6 7 3 4 1032.5 1032.6 0.4
24/08:30am 0.9 -1.0 0.5 97 0.2 CALM 0 0 0 0 1032.3 1032.3 0.4
24/08:28am 0.8 -1.1 0.4 97 0.2 CALM 0 0 0 0 1032.3 1032.3 0.4
24/08:00am 0.0 -2.0 -0.4 97 0.1 CALM 0 0 0 0 1031.9 1032.0 0.2
24/07:54am -0.3 -2.4 -0.7 97 0.1 CALM 0 0 0 0 1031.8 1031.9 0.2
24/07:30am -0.8 -3.0 -1.2 97 0.1 CALM 0 0 0 0 1031.5 1031.6 0.2
24/07:00am -0.9 -3.1 -1.3 97 0.1 CALM 0 0 0 0 1031.2 1031.3 0.2
24/06:30am -0.4 -2.5 -0.8 97 0.1 CALM 0 0 0 0 1031.1 1031.2 0.2
24/06:00am -0.2 -2.3 -0.6 97 0.1 CALM 0 0 0 0 1030.9 1030.9 0.2
24/05:30am -0.1 -2.2 -0.5 97 0.1 CALM 0 0 0 0 1030.6 1030.6 0.2
24/05:00am 0.2 -1.8 -0.2 97 0.1 CALM 0 0 0 0 1030.3 1030.4 0.2
24/04:30am 0.3 -1.7 -0.1 97 0.2 CALM 0 0 0 0 1030.3 1030.4 0.2
24/04:00am 0.0 -2.0 -0.4 97 0.1 CALM 0 0 0 0 1030.1 1030.2 0.2
24/03:30am -0.2 -2.3 -0.6 97 0.1 CALM 0 0 0 0 1029.9 1030.0 0.2
24/03:00am -0.2 -2.3 -0.8 96 0.2 CALM 0 0 0 0 1029.9 1030.0 0.2
24/02:30am -0.1 -2.2 -0.7 96 0.2 CALM 0 0 0 0 1029.9 1030.0 0.2
24/02:00am 0.1 -2.0 -0.5 96 0.2 CALM 0 0 0 0 1029.9 1030.0 0.2
24/01:30am 0.4 -1.6 -0.2 96 0.2 CALM 0 0 0 0 1030.0 1030.1 0.2
24/01:00am 0.6 -1.4 0.0 96 0.2 CALM 0 0 0 0 1029.8 1029.9 0.2
24/12:30am 0.5 -1.5 -0.1 96 0.2 CALM 0 0 0 0 1029.9 1030.0 0.0
24/12:00am 0.6 -1.4 0.2 97 0.2 CALM 0 0 0 0 1029.8 1029.9 0.0
 
Date/Time
EST
Temp
°C
App
Temp
°C
Dew
Point
Rel
Hum
%
Delta-T
°C
Wind Press
QNH
hPa
Press
MSL
hPa
Rain
since 9 am
mm
Dir
 
Spd
km/h
Gust
km/h
Spd
kts
Gust
kts
23/11:34pm 1.1 -0.8 0.7 97 0.2 CALM 0 0 0 0 1029.8 1029.9 0.0
23/11:33pm 1.0 -0.9 0.6 97 0.2 CALM 0 0 0 0 1029.8 1029.9 0.0
23/11:30pm 0.7 -1.2 0.3 97 0.2 CALM 0 0 0 0 1029.9 1030.0 0.0
23/11:18pm 1.1 -0.8 0.7 97 0.2 CALM 0 0 0 0 1029.8 1029.9 0.0
23/11:00pm 1.5 -0.3 1.1 97 0.2 CALM 0 0 0 0 1029.8 1029.9 0.0
23/10:30pm 1.8 0.0 1.2 96 0.2 CALM 0 0 0 0 1029.8 1029.9 0.0
23/10:00pm 2.3 0.6 1.7 96 0.2 CALM 0 0 0 0 1029.8 1029.9 0.0
23/09:30pm 2.0 0.2 1.3 95 0.3 CALM 0 0 0 0 1030.0 1030.1 0.0
23/09:00pm 3.7 2.2 3.0 95 0.3 CALM 0 0 0 0 1030.1 1030.2 0.0
23/08:30pm 5.4 4.3 5.0 97 0.2 CALM 0 0 0 0 1030.1 1030.2 0.0
23/08:00pm 5.0 3.8 4.4 96 0.3 CALM 0 0 0 0 1029.9 1030.0 0.0
23/07:30pm 5.5 3.2 4.6 94 0.4 SSE 6 7 3 4 1029.8 1029.9 0.0
23/07:27pm 5.5 3.2 4.6 94 0.4 SE 6 7 3 4 1029.8 1029.9 0.0
23/07:00pm 6.3 3.9 5.3 93 0.5 ESE 7 7 4 4 1029.7 1029.7 0.0
23/06:30pm 6.6 4.4 5.1 90 0.7 E 6 7 3 4 1029.5 1029.5 0.0
23/06:00pm 7.4 4.9 4.9 84 1.1 SE 7 9 4 5 1029.4 1029.4 0.0
23/05:30pm 8.9 6.6 5.5 79 1.6 SSE 7 11 4 6 1029.1 1029.1 0.0
23/05:00pm 9.5 6.3 5.1 74 2.0 S 11 13 6 7 1029.0 1029.0 0.0
23/04:30pm 11.1 8.2 4.8 65 3.0 SW 9 13 5 7 1028.9 1028.9 0.0
23/04:00pm 12.2 9.3 4.7 60 3.5 WSW 9 15 5 8 1028.7 1028.8 0.0
23/03:30pm 12.3 9.6 3.8 56 4.0 SW 7 13 4 7 1028.5 1028.6 0.0
23/03:00pm 12.8 10.0 5.2 60 3.6 WSW 9 13 5 7 1028.3 1028.3 0.0
23/02:30pm 12.2 9.8 4.4 59 3.7 SW 6 11 3 6 1028.3 1028.3 0.0
23/02:00pm 11.8 8.9 4.5 61 3.4 SSW 9 11 5 6 1028.3 1028.3 0.0
23/01:30pm 11.2 8.2 4.2 62 3.3 SSE 9 15 5 8 1028.4 1028.4 0.0
23/01:00pm 11.0 8.0 4.0 62 3.2 SSW 9 15 5 8 1028.7 1028.8 0.0
23/12:30pm 10.7 7.0 4.4 65 2.9 S 13 19 7 10 1028.7 1028.8 0.0
23/12:00pm 11.0 7.6 5.7 70 2.5 S 13 22 7 12 1029.1 1029.1 0.0
23/11:30am 10.1 5.3 4.5 68 2.6 SSW 19 22 10 12 1029.4 1029.4 0.0
23/11:00am 10.1 6.1 5.1 71 2.3 SSW 15 22 8 12 1029.8 1029.9 0.0
23/10:30am 9.3 5.2 4.5 72 2.2 WSW 15 22 8 12 1030.1 1030.2 0.0
23/10:00am 8.7 4.9 4.1 73 2.1 W 13 22 7 12 1030.1 1030.2 0.0
23/09:30am 7.6 3.8 3.8 77 1.7 WSW 13 17 7 9 1029.9 1030.0 0.0
23/09:00am 6.5 2.7 4.0 84 1.1 W 13 15 7 8 1029.8 1029.9 7.8
23/08:30am 5.6 1.8 3.9 89 0.7 W 13 19 7 10 1029.8 1029.9 7.8
23/08:00am 4.3 0.2 2.3 87 0.8 W 13 17 7 9 1029.5 1029.5 7.8
23/07:30am 3.4 -1.1 2.2 92 0.5 W 15 20 8 11 1029.1 1029.1 7.8
23/07:00am 3.1 -1.0 2.2 94 0.4 WSW 13 17 7 9 1028.5 1028.6 7.8
23/06:30am 3.1 -1.0 2.1 93 0.4 WSW 13 19 7 10 1028.3 1028.3 7.8
23/06:00am 3.1 -1.1 1.9 92 0.5 WSW 13 17 7 9 1028.1 1028.1 7.8
23/05:30am 3.8 -0.7 2.2 89 0.7 WSW 15 19 8 10 1027.8 1027.8 7.8
23/05:00am 4.1 0.0 2.5 89 0.7 WSW 13 17 7 9 1027.7 1027.7 7.8
23/04:30am 5.1 1.9 2.8 85 1.0 SW 9 13 5 7 1027.5 1027.5 7.8
23/04:00am 5.5 1.5 2.8 83 1.1 SSW 13 17 7 9 1027.4 1027.4 7.8
23/03:30am 5.9 0.3 3.2 83 1.2 SSW 22 28 12 15 1027.2 1027.2 7.8
23/03:00am 6.2 1.0 3.7 84 1.1 SSW 20 28 11 15 1027.5 1027.5 7.8
23/02:30am 6.5 2.3 3.7 82 1.2 SW 15 24 8 13 1027.8 1027.8 7.8
23/02:00am 6.7 1.6 4.0 83 1.2 S 20 30 11 16 1027.5 1027.5 7.8
23/01:30am 6.7 3.0 4.2 84 1.1 SSW 13 20 7 11 1027.4 1027.4 7.8
23/01:00am 6.7 2.7 4.7 87 0.9 SSW 15 24 8 13 1027.2 1027.2 7.8
23/12:30am 6.7 1.8 5.3 91 0.6 SSW 20 30 11 16 1027.2 1027.2 7.8
23/12:06am 6.7 1.9 5.7 93 0.5 SSW 20 28 11 15 1027.1 1027.1 7.8
23/12:00am 6.7 2.6 6.0 95 0.3 SSW 17 24 9 13 1027.0 1027.0 7.8
 
Date/Time
EST
Temp
°C
App
Temp
°C
Dew
Point
Rel
Hum
%
Delta-T
°C
Wind Press
QNH
hPa
Press
MSL
hPa
Rain
since 9 am
mm
Dir
 
Spd
km/h
Gust
km/h
Spd
kts
Gust
kts
22/11:30pm 7.0 2.4 6.3 95 0.3 SSW 20 28 11 15 1027.0 1027.0 7.8
22/11:21pm 7.0 2.4 6.3 95 0.3 SSW 20 30 11 16 1026.9 1026.9 7.8
22/11:18pm 6.9 1.8 6.2 95 0.3 SSW 22 30 12 16 1026.8 1026.8 7.8
22/11:00pm 7.1 1.7 6.5 96 0.3 SSW 24 33 13 18 1026.9 1026.9 7.8
22/10:30pm 7.2 1.9 6.6 96 0.3 SSW 24 37 13 20 1026.8 1026.8 7.8
22/10:00pm 7.3 2.0 6.9 97 0.2 SSW 24 33 13 18 1026.6 1026.6 7.8
22/09:30pm 7.3 2.4 6.7 96 0.3 SSW 22 33 12 18 1026.5 1026.5 7.6
22/09:00pm 7.3 2.4 6.7 96 0.3 SSW 22 32 12 17 1026.3 1026.3 7.4
22/08:30pm 7.3 2.7 6.7 96 0.3 SSW 20 30 11 16 1026.1 1026.1 7.2
22/08:00pm 7.4 1.7 6.8 96 0.3 SSW 26 35 14 19 1026.0 1025.9 7.0
22/07:30pm 7.4 1.7 6.7 95 0.3 S 26 37 14 20 1025.8 1025.7 7.0
22/07:24pm 7.4 1.3 6.7 95 0.3 S 28 39 15 21 1025.6 1025.6 6.8
22/07:14pm 7.4 2.1 6.8 96 0.3 SSW 24 32 13 17 1025.5 1025.5 6.8
22/07:01pm 7.4 1.3 6.8 96 0.3 SSW 28 37 15 20 1025.4 1025.4 6.8
22/07:00pm 7.3 1.2 6.6 95 0.3 SSW 28 37 15 20 1025.4 1025.4 6.8
22/06:47pm 7.4 2.0 6.5 94 0.4 SSW 24 39 13 21 1025.3 1025.3 6.6
22/06:43pm 7.4 2.8 6.5 94 0.4 SSW 20 30 11 16 1025.2 1025.2 6.6
22/06:30pm 7.3 0.8 6.6 95 0.3 SSW 30 39 16 21 1025.0 1025.0 6.6
22/06:08pm 7.3 1.2 6.4 94 0.4 SSW 28 43 15 23 1024.7 1024.6 6.6
22/06:00pm 7.3 1.2 6.4 94 0.4 SSW 28 37 15 20 1024.6 1024.5 6.6
22/05:30pm 7.5 3.2 6.9 96 0.3 SSW 19 28 10 15 1024.5 1024.4 6.6
22/05:00pm 7.6 2.7 6.9 95 0.3 SSW 22 41 12 22 1024.0 1024.0 6.4
22/04:30pm 7.7 2.8 7.0 95 0.3 SSW 22 32 12 17 1023.6 1023.6 6.2
22/04:00pm 7.7 2.1 7.0 95 0.3 S 26 39 14 21 1023.1 1023.0 6.2
22/03:39pm 7.7 1.7 7.0 95 0.3 S 28 54 15 29 1022.9 1022.8 6.0
22/03:30pm 7.8 2.6 7.1 95 0.3 S 24 39 13 21 1022.9 1022.8 5.8
22/03:03pm 8.1 2.2 7.3 95 0.4 S 28 46 15 25 1022.6 1022.5 5.6
22/03:00pm 8.1 2.5 7.3 95 0.4 S 26 37 14 20 1022.6 1022.5 5.6
22/02:30pm 8.4 1.7 7.5 94 0.4 S 32 44 17 24 1022.1 1022.0 5.4
22/02:00pm 8.3 1.6 7.5 95 0.4 S 32 44 17 24 1021.9 1021.8 5.2
22/01:35pm 8.8 2.3 8.0 95 0.4 S 32 50 17 27 1021.6 1021.5 5.0
22/01:30pm 8.6 1.8 7.7 94 0.4 S 33 50 18 27 1021.6 1021.5 4.8
22/01:00pm 8.6 2.0 7.7 94 0.4 S 32 50 17 27 1021.4 1021.3 4.6
22/12:30pm 8.7 1.5 7.6 93 0.5 S 35 59 19 32 1021.3 1021.2 4.4
22/12:18pm 8.6 2.0 7.7 94 0.4 S 32 50 17 27 1021.3 1021.2 4.4
22/12:01pm 8.9 1.6 7.4 90 0.7 S 35 52 19 28 1021.3 1021.2 4.0
22/12:00pm 8.9 1.6 7.4 90 0.7 S 35 52 19 28 1021.2 1021.1 4.0
22/11:55am 9.0 1.7 7.3 89 0.8 S 35 46 19 25 1021.2 1021.1 4.0
22/11:46am 9.2 1.2 7.5 89 0.8 S 39 59 21 32 1021.1 1021.0 4.0
22/11:30am 8.7 0.7 7.3 91 0.7 S 39 57 21 31 1021.3 1021.2 4.0
22/11:21am 8.6 1.8 7.5 93 0.5 S 33 54 18 29 1021.5 1021.4 4.0
22/11:14am 8.7 1.2 7.8 94 0.4 S 37 50 20 27 1021.4 1021.3 4.0
22/11:00am 8.3 0.7 7.5 95 0.4 S 37 57 20 31 1021.2 1021.1 4.0
22/10:30am 9.0 2.3 8.2 95 0.4 S 33 59 18 32 1020.7 1020.6 3.4
22/10:28am 9.0 2.3 8.2 95 0.4 S 33 59 18 32 1020.7 1020.6 3.4
22/10:14am 9.5 3.5 8.7 95 0.4 SSE 30 39 16 21 1020.6 1020.5 2.6
22/10:04am 9.4 1.7 8.5 94 0.5 SSE 39 65 21 35 1020.3 1020.2 2.0
22/10:00am 9.3 0.7 8.2 93 0.6 SSE 43 65 23 35 1020.3 1020.2 2.0
22/09:52am 9.2 0.6 8.3 94 0.5 SSE 43 63 23 34 1020.1 1020.0 1.8
22/09:51am 9.5 1.4 8.6 94 0.5 SSE 41 61 22 33 1020.2 1020.1 1.8
22/09:31am 9.9 3.4 9.0 94 0.5 SSE 33 61 18 33 1019.7 1019.6 1.2
22/09:30am 9.8 3.3 8.9 94 0.5 SSE 33 48 18 26 1019.8 1019.7 1.2
22/09:00am 9.9 4.0 9.1 95 0.4 S 30 50 16 27 1019.6 1019.4 5.0
22/08:44am 9.9 4.0 9.1 95 0.4 SSE 30 54 16 29 1019.5 1019.3 4.2
22/08:37am 9.8 4.3 9.0 95 0.4 SSE 28 54 15 29 1019.3 1019.2 4.2
22/08:30am 9.7 5.3 9.1 96 0.3 SSE 22 32 12 17 1019.3 1019.2 4.2
22/08:07am 9.4 5.3 8.8 96 0.3 S 20 30 11 16 1019.1 1019.0 3.4
22/08:04am 9.4 5.0 8.8 96 0.3 S 22 30 12 16 1019.1 1019.0 3.2
22/08:00am 9.4 5.3 8.8 96 0.3 S 20 30 11 16 1019.1 1019.0 3.2
22/07:41am 9.3 5.8 8.7 96 0.3 S 17 26 9 14 1018.8 1018.7 2.4
22/07:30am 9.4 5.3 8.6 95 0.4 S 20 35 11 19 1018.6 1018.5 2.0
22/07:21am 9.3 4.4 8.5 95 0.4 S 24 48 13 26 1018.6 1018.5 2.0
22/07:07am 9.3 4.4 8.5 95 0.4 S 24 35 13 19 1018.5 1018.4 1.8
22/07:01am 9.3 4.0 8.5 95 0.4 S 26 35 14 19 1018.3 1018.1 1.8
22/07:00am 9.3 4.0 8.5 95 0.4 S 26 35 14 19 1018.3 1018.1 1.6
22/06:30am 8.7 2.6 8.1 96 0.3 S 30 48 16 26 1018.2 1018.0 1.4
22/06:27am 8.6 2.4 8.0 96 0.3 S 30 48 16 26 1018.1 1017.9 1.4
22/06:00am 8.3 3.2 7.7 96 0.3 SSW 24 39 13 21 1017.5 1017.4 1.0
22/05:30am 8.2 2.7 7.4 95 0.4 SSW 26 37 14 20 1017.3 1017.2 1.0
22/05:00am 8.4 3.0 7.8 96 0.3 SSW 26 35 14 19 1017.2 1017.1 0.8
22/04:47am 8.5 2.3 7.7 95 0.4 SSW 30 39 16 21 1017.1 1016.9 0.6
22/04:46am 8.5 2.3 7.7 95 0.4 SSW 30 39 16 21 1017.2 1017.1 0.6
22/04:34am 8.5 1.9 7.7 95 0.4 SSW 32 44 17 24 1017.1 1016.9 0.6
22/04:30am 8.6 2.8 7.8 95 0.4 S 28 44 15 24 1017.2 1017.1 0.6
22/04:00am 8.6 2.8 7.8 95 0.4 SSW 28 39 15 21 1017.2 1017.1 0.4
22/03:33am 8.7 4.0 7.6 93 0.5 SSW 22 33 12 18 1017.2 1017.1 0.2
22/03:30am 8.6 3.8 7.5 93 0.5 SSW 22 32 12 17 1017.2 1017.1 0.2
22/03:00am 8.6 3.8 7.2 91 0.7 SW 22 30 12 16 1017.4 1017.3 0.2
22/02:30am 8.7 3.5 7.3 91 0.7 SSW 24 32 13 17 1017.6 1017.5 0.2
22/02:00am 8.8 3.3 7.4 91 0.7 SSW 26 35 14 19 1017.9 1017.7 0.2
22/01:42am 8.6 4.2 7.4 92 0.6 SSW 20 30 11 16 1018.1 1017.9 0.2

Other Formats:

Comma delimited format used in spreadsheet applications
http://www.bom.gov.au/fwo/IDN60801/IDN60801.94746.axf

JavaScript Object Notation format (JSON) in row-major order
http://www.bom.gov.au/fwo/IDN60801/IDN60801.94746.json